Time;durP1;ratioP1;P1;durP2;ratioP2;P2;SDS_P1;SDS_P2;PMS_P1;PMS_P2;Temp;Humidity;BMP_temperature;BMP_pressure;BME280_temperature;BME280_humidity;BME280_pressure;Samples;Min_cycle;Max_cycle;Signal;HPM_P1;HPM_P2
2022/01/16 00:00:41;;;;;;;;;;;11.30;54.30;;;;;;5079965;28;20205;-70
2022/01/16 00:05:54;;;;;;;;;;;11.30;54.50;;;;;;5080856;28;20005;-70
2022/01/16 00:08:20;;;;;;;;;;;11.20;54.60;;;;;;5081041;28;20204;-70
2022/01/16 00:10:45;;;;;;;;;;;11.30;54.80;;;;;;5080938;28;19912;-70
2022/01/16 00:13:11;;;;;;;;;;;11.30;54.70;;;;;;5080943;28;19916;-70
2022/01/16 00:15:36;;;;;;;;;;;11.20;54.60;;;;;;5080451;28;20299;-70
2022/01/16 00:20:28;;;;;;;;;;;11.20;54.60;;;;;;5080960;28;20229;-71
2022/01/16 00:22:54;;;;;;;;;;;11.20;54.50;;;;;;5080755;28;19938;-70
2022/01/16 00:25:20;;;;;;;;;;;11.20;54.60;;;;;;5080668;28;19948;-69
2022/01/16 00:27:45;;;;;;;;;;;11.20;54.50;;;;;;5080642;28;19951;-69
2022/01/16 00:30:11;;;;;;;;;;;11.20;54.50;;;;;;5080570;28;19908;-69
2022/01/16 00:32:37;;;;;;;;;;;11.10;54.60;;;;;;5080623;28;20243;-69
2022/01/16 00:35:03;;;;;;;;;;;11.20;54.40;;;;;;5080591;28;19912;-69
2022/01/16 00:37:28;;;;;;;;;;;11.20;54.40;;;;;;5080536;28;20227;-70
2022/01/16 00:39:54;;;;;;;;;;;11.20;54.60;;;;;;5080457;28;19905;-69
2022/01/16 00:42:19;;;;;;;;;;;11.20;54.60;;;;;;5080359;28;19911;-69
2022/01/16 00:44:45;;;;;;;;;;;11.20;54.80;;;;;;5080340;28;20159;-69
2022/01/16 00:47:11;;;;;;;;;;;11.20;54.70;;;;;;5080296;28;20131;-70
2022/01/16 00:49:39;;;;;;;;;;;11.20;54.60;;;;;;5080222;28;19936;-69
2022/01/16 00:52:08;;;;;;;;;;;11.30;54.60;;;;;;5080229;28;19971;-70
2022/01/16 00:54:34;;;;;;;;;;;11.30;54.60;;;;;;5080206;28;19983;-69
2022/01/16 00:56:59;;;;;;;;;;;11.20;54.60;;;;;;5080204;28;19911;-70
2022/01/16 00:59:25;;;;;;;;;;;11.20;54.50;;;;;;5078858;28;19954;-70
2022/01/16 01:01:51;;;;;;;;;;;11.20;54.50;;;;;;5080082;28;19913;-70
2022/01/16 01:04:17;;;;;;;;;;;11.10;53.90;;;;;;5078733;28;19951;-70
2022/01/16 01:06:47;;;;;;;;;;;11.00;54.10;;;;;;5079931;28;19931;-69
2022/01/16 01:09:12;;;;;;;;;;;10.90;54.40;;;;;;5080041;28;19920;-70
2022/01/16 01:11:39;;;;;;;;;;;10.80;54.50;;;;;;5079917;28;20112;-71
2022/01/16 01:16:49;;;;;;;;;;;11.00;54.80;;;;;;5079863;28;19919;-70
2022/01/16 01:19:15;;;;;;;;;;;11.10;54.60;;;;;;5079576;28;19904;-71
2022/01/16 01:21:41;;;;;;;;;;;11.10;54.60;;;;;;5079854;28;19919;-70
2022/01/16 01:24:06;;;;;;;;;;;11.10;54.50;;;;;;5079706;28;19946;-70
2022/01/16 01:26:38;;;;;;;;;;;11.20;54.50;;;;;;5079237;28;19913;-70
2022/01/16 01:29:03;;;;;;;;;;;11.10;54.50;;;;;;5079566;28;20336;-70
2022/01/16 01:31:30;;;;;;;;;;;11.20;54.60;;;;;;5080054;28;19908;-70
2022/01/16 01:33:56;;;;;;;;;;;11.20;54.70;;;;;;5078481;28;19984;-70
2022/01/16 01:36:21;;;;;;;;;;;11.20;54.80;;;;;;5079773;28;19911;-70
2022/01/16 01:38:47;;;;;;;;;;;11.20;54.50;;;;;;5079641;28;19913;-70
2022/01/16 01:41:13;;;;;;;;;;;11.10;53.90;;;;;;5079697;28;20229;-69
2022/01/16 01:51:36;;;;;;;;;;;10.80;54.80;;;;;;5079648;28;19919;-70
2022/01/16 01:54:03;;;;;;;;;;;10.70;54.80;;;;;;5079600;28;19940;-70
2022/01/16 01:56:28;;;;;;;;;;;10.80;55.10;;;;;;5079536;28;19942;-69
2022/01/16 01:58:55;;;;;;;;;;;10.90;55.20;;;;;;5079600;28;20216;-69
2022/01/16 02:01:21;;;;;;;;;;;11.00;55.00;;;;;;5079612;28;19975;-70
2022/01/16 02:03:48;;;;;;;;;;;11.10;55.00;;;;;;5079353;28;19943;-70
2022/01/16 02:06:43;;;;;;;;;;;11.10;54.80;;;;;;5079154;28;19928;-70
2022/01/16 02:09:10;;;;;;;;;;;11.10;54.70;;;;;;5083347;28;19917;-70
2022/01/16 02:11:36;;;;;;;;;;;11.10;54.20;;;;;;5079411;28;19916;-70
2022/01/16 02:35:40;;;;;;;;;;;10.70;55.10;;;;;;5079505;28;19958;-70
2022/01/16 02:38:08;;;;;;;;;;;10.80;55.10;;;;;;5079741;28;20229;-70
2022/01/16 02:40:35;;;;;;;;;;;10.90;55.00;;;;;;5082941;28;19974;-70
2022/01/16 02:43:02;;;;;;;;;;;11.00;54.90;;;;;;5082815;28;19919;-70
2022/01/16 02:45:32;;;;;;;;;;;11.10;54.80;;;;;;5082731;28;19916;-70
2022/01/16 02:48:03;;;;;;;;;;;11.10;54.00;;;;;;5082781;28;20234;-70
2022/01/16 02:50:29;;;;;;;;;;;10.90;53.90;;;;;;5081453;28;19916;-70
2022/01/16 02:52:54;;;;;;;;;;;10.80;54.20;;;;;;5081394;28;19935;-70
2022/01/16 02:55:21;;;;;;;;;;;10.70;54.50;;;;;;5082599;28;19912;-70
2022/01/16 02:57:51;;;;;;;;;;;10.60;54.60;;;;;;5082614;28;20018;-70
2022/01/16 03:00:17;;;;;;;;;;;10.60;54.70;;;;;;5082470;28;19975;-70
2022/01/16 03:02:42;;;;;;;;;;;10.60;54.80;;;;;;5081213;28;19967;-70
2022/01/16 03:05:08;;;;;;;;;;;10.60;54.90;;;;;;5082343;28;19916;-70
2022/01/16 03:07:34;;;;;;;;;;;10.60;54.70;;;;;;5082375;28;19923;-70
2022/01/16 03:10:28;;;;;;;;;;;10.60;54.70;;;;;;5082368;28;19905;-70
2022/01/16 03:12:49;;;;;;;;;;;10.60;54.60;;;;;;5082244;28;19965;-70
2022/01/16 03:15:16;;;;;;;;;;;10.70;54.60;;;;;;5082265;28;19905;-70
2022/01/16 03:21:53;;;;;;;;;;;10.70;54.90;;;;;;5082195;28;19947;-69
2022/01/16 03:23:13;;;;;;;;;;;10.90;54.90;;;;;;5082189;28;20252;-70
2022/01/16 03:25:38;;;;;;;;;;;10.90;54.20;;;;;;5082046;28;19947;-70
2022/01/16 03:28:04;;;;;;;;;;;10.70;54.20;;;;;;5080768;28;19909;-71
2022/01/16 03:30:30;;;;;;;;;;;10.60;54.50;;;;;;5082073;28;19916;-71
2022/01/16 03:32:56;;;;;;;;;;;10.60;54.70;;;;;;5081990;28;20112;-71
2022/01/16 03:35:21;;;;;;;;;;;10.50;54.90;;;;;;5082023;28;19904;-70
2022/01/16 03:37:47;;;;;;;;;;;10.50;55.00;;;;;;5081902;28;19944;-70
2022/01/16 03:40:13;;;;;;;;;;;10.50;55.00;;;;;;5081821;28;19976;-70
2022/01/16 03:42:39;;;;;;;;;;;10.50;54.90;;;;;;5081725;28;19913;-69
2022/01/16 03:45:05;;;;;;;;;;;10.60;54.80;;;;;;5081714;28;19983;-71
2022/01/16 03:47:31;;;;;;;;;;;10.60;54.80;;;;;;5081755;28;20101;-70
2022/01/16 03:49:57;;;;;;;;;;;10.60;55.00;;;;;;5080821;28;19912;-70
2022/01/16 03:52:23;;;;;;;;;;;10.60;54.60;;;;;;5081724;28;19916;-70
2022/01/16 03:54:49;;;;;;;;;;;10.60;54.70;;;;;;5081573;28;19912;-70
2022/01/16 03:57:14;;;;;;;;;;;10.60;54.50;;;;;;5081574;28;19904;-70
2022/01/16 03:59:40;;;;;;;;;;;10.60;54.60;;;;;;5081475;28;20141;-70
2022/01/16 04:02:06;;;;;;;;;;;10.60;54.70;;;;;;5081406;28;20196;-70
2022/01/16 04:04:31;;;;;;;;;;;10.50;54.70;;;;;;5081378;28;19909;-71
2022/01/16 04:06:57;;;;;;;;;;;10.50;55.00;;;;;;5081214;28;19959;-70
2022/01/16 04:09:23;;;;;;;;;;;10.50;55.10;;;;;;5081267;28;19913;-70
2022/01/16 04:11:54;;;;;;;;;;;10.40;55.10;;;;;;5079881;28;19943;-69
2022/01/16 04:15:31;;;;;;;;;;;10.40;55.00;;;;;;5081218;28;19905;-69
2022/01/16 04:17:16;;;;;;;;;;;10.50;55.00;;;;;;5080983;28;19912;-69
2022/01/16 04:19:42;;;;;;;;;;;10.50;54.90;;;;;;5081090;28;20362;-70
2022/01/16 04:22:08;;;;;;;;;;;10.50;54.80;;;;;;5080995;28;19916;-69
2022/01/16 04:24:34;;;;;;;;;;;10.50;54.70;;;;;;5080934;28;19928;-68
2022/01/16 04:26:59;;;;;;;;;;;10.60;55.00;;;;;;5080863;28;19963;-70
2022/01/16 04:29:25;;;;;;;;;;;10.50;54.90;;;;;;5080827;28;19958;-70
2022/01/16 04:31:51;;;;;;;;;;;10.60;54.70;;;;;;5080755;28;19975;-70
2022/01/16 04:34:16;;;;;;;;;;;10.50;54.60;;;;;;5080791;28;20220;-70
2022/01/16 04:36:42;;;;;;;;;;;10.50;54.70;;;;;;5079521;28;19913;-70
2022/01/16 04:39:19;;;;;;;;;;;10.40;54.90;;;;;;5080671;28;19916;-70
2022/01/16 04:44:29;;;;;;;;;;;10.40;55.10;;;;;;5080481;28;19915;-69
2022/01/16 04:46:56;;;;;;;;;;;10.40;55.10;;;;;;5080483;28;19944;-69
2022/01/16 04:49:21;;;;;;;;;;;10.40;55.10;;;;;;5080489;28;19936;-70
2022/01/16 04:51:47;;;;;;;;;;;10.50;55.00;;;;;;5080442;28;20220;-70
2022/01/16 04:54:13;;;;;;;;;;;10.50;54.80;;;;;;5080368;28;19935;-69
2022/01/16 04:56:38;;;;;;;;;;;10.50;54.80;;;;;;5080385;28;20208;-69
2022/01/16 04:59:04;;;;;;;;;;;10.50;54.80;;;;;;5080333;28;19905;-69
2022/01/16 05:01:29;;;;;;;;;;;10.50;54.80;;;;;;5080219;28;19904;-69
2022/01/16 05:03:55;;;;;;;;;;;10.40;54.80;;;;;;5080414;28;19913;-69
2022/01/16 05:06:21;;;;;;;;;;;10.50;54.90;;;;;;5080134;28;19938;-70
2022/01/16 05:08:47;;;;;;;;;;;10.50;54.80;;;;;;5080192;28;19975;-70
2022/01/16 05:11:14;;;;;;;;;;;10.50;54.80;;;;;;5080296;28;20113;-70
2022/01/16 05:18:51;;;;;;;;;;;10.40;55.00;;;;;;5080211;28;19918;-70
2022/01/16 05:21:16;;;;;;;;;;;10.30;55.20;;;;;;5080157;28;20096;-69
2022/01/16 05:23:42;;;;;;;;;;;10.30;55.20;;;;;;5080136;28;19912;-69
2022/01/16 05:26:08;;;;;;;;;;;10.40;55.20;;;;;;5079937;28;20233;-70
2022/01/16 05:28:34;;;;;;;;;;;10.40;55.10;;;;;;5080119;28;19904;-70
2022/01/16 05:31:00;;;;;;;;;;;10.40;55.10;;;;;;5079987;28;20511;-70
2022/01/16 05:33:26;;;;;;;;;;;10.40;54.90;;;;;;5078746;28;19904;-70
2022/01/16 05:35:51;;;;;;;;;;;10.40;54.90;;;;;;5080064;28;19905;-69
2022/01/16 05:38:17;;;;;;;;;;;10.40;54.80;;;;;;5079868;28;19913;-69
2022/01/16 05:40:43;;;;;;;;;;;10.40;55.00;;;;;;5080003;28;20147;-69
2022/01/16 05:43:09;;;;;;;;;;;10.40;55.00;;;;;;5079885;28;19913;-69
2022/01/16 05:45:35;;;;;;;;;;;10.30;55.00;;;;;;5079760;28;19915;-69
2022/01/16 05:48:01;;;;;;;;;;;10.40;55.00;;;;;;5079879;28;19920;-69
2022/01/16 05:50:26;;;;;;;;;;;10.30;54.90;;;;;;5079717;28;19905;-70
2022/01/16 05:52:52;;;;;;;;;;;10.30;55.10;;;;;;5079832;28;19919;-70
2022/01/16 05:55:18;;;;;;;;;;;10.30;55.20;;;;;;5079780;28;19920;-70
2022/01/16 05:57:44;;;;;;;;;;;10.30;55.30;;;;;;5079719;28;19993;-70
2022/01/16 06:00:11;;;;;;;;;;;10.30;55.90;;;;;;5079800;28;19904;-70
2022/01/16 06:02:37;;;;;;;;;;;10.30;55.20;;;;;;5079644;28;19912;-70
2022/01/16 06:05:03;;;;;;;;;;;10.30;55.10;;;;;;5079653;28;19916;-69
2022/01/16 06:07:29;;;;;;;;;;;10.30;55.10;;;;;;5079557;28;19951;-69
2022/01/16 06:09:55;;;;;;;;;;;10.30;55.00;;;;;;5079669;28;20100;-70
2022/01/16 06:12:21;;;;;;;;;;;10.30;55.00;;;;;;5079652;28;19912;-69
2022/01/16 06:14:46;;;;;;;;;;;10.30;55.10;;;;;;5082851;28;19919;-70
2022/01/16 06:17:12;;;;;;;;;;;10.30;55.10;;;;;;5083517;28;20365;-70
2022/01/16 06:19:37;;;;;;;;;;;10.30;55.10;;;;;;5083477;28;19919;-71
2022/01/16 06:22:03;;;;;;;;;;;10.30;55.10;;;;;;5083424;28;20375;-70
2022/01/16 06:24:29;;;;;;;;;;;10.30;55.20;;;;;;5083283;28;20200;-68
2022/01/16 06:26:55;;;;;;;;;;;10.20;55.20;;;;;;5083317;28;19905;-70
2022/01/16 06:29:20;;;;;;;;;;;10.20;55.30;;;;;;5083187;28;19912;-70
2022/01/16 06:31:46;;;;;;;;;;;10.20;55.20;;;;;;5083201;28;20260;-70
2022/01/16 06:34:12;;;;;;;;;;;10.20;55.30;;;;;;5083215;28;19912;-70
2022/01/16 06:36:38;;;;;;;;;;;10.20;55.30;;;;;;5083106;28;19913;-70
2022/01/16 06:39:04;;;;;;;;;;;10.30;55.20;;;;;;5083132;28;19913;-70
2022/01/16 06:41:30;;;;;;;;;;;10.30;55.10;;;;;;5083008;28;19904;-69
2022/01/16 06:43:56;;;;;;;;;;;10.30;55.00;;;;;;5082938;28;19983;-69
2022/01/16 06:46:22;;;;;;;;;;;10.30;55.00;;;;;;5082888;28;19948;-70
2022/01/16 06:48:48;;;;;;;;;;;10.30;55.10;;;;;;5082922;28;19919;-70
2022/01/16 06:51:13;;;;;;;;;;;10.30;55.00;;;;;;5083195;28;19912;-70
2022/01/16 06:53:39;;;;;;;;;;;10.30;55.10;;;;;;5082765;28;20133;-70
2022/01/16 06:56:04;;;;;;;;;;;10.30;55.00;;;;;;5082783;28;20188;-70
2022/01/16 06:58:30;;;;;;;;;;;10.30;55.00;;;;;;5082662;28;19913;-70
2022/01/16 07:00:55;;;;;;;;;;;10.30;55.10;;;;;;5082718;28;20113;-70
2022/01/16 07:03:21;;;;;;;;;;;10.30;55.20;;;;;;5082597;28;19940;-70
2022/01/16 07:05:47;;;;;;;;;;;10.20;55.20;;;;;;5082302;28;20224;-70
2022/01/16 07:08:12;;;;;;;;;;;10.20;55.30;;;;;;5082562;28;19939;-70
2022/01/16 07:10:38;;;;;;;;;;;10.20;55.30;;;;;;5082513;28;19955;-70
2022/01/16 07:13:04;;;;;;;;;;;10.30;55.20;;;;;;5082482;28;19912;-71
2022/01/16 07:15:30;;;;;;;;;;;10.30;55.20;;;;;;5082383;28;20105;-70
2022/01/16 07:17:55;;;;;;;;;;;10.30;55.00;;;;;;5082365;28;19920;-70
2022/01/16 07:20:21;;;;;;;;;;;10.30;55.00;;;;;;5082355;28;20212;-70
2022/01/16 07:22:47;;;;;;;;;;;10.30;54.90;;;;;;5082315;28;19962;-70
2022/01/16 07:25:13;;;;;;;;;;;10.30;55.00;;;;;;5080816;28;19927;-70
2022/01/16 07:27:39;;;;;;;;;;;10.30;55.00;;;;;;5082124;28;19944;-70
2022/01/16 07:30:05;;;;;;;;;;;10.30;55.00;;;;;;5082129;28;19971;-70
2022/01/16 07:32:31;;;;;;;;;;;10.30;54.90;;;;;;5082112;28;19916;-70
2022/01/16 07:34:56;;;;;;;;;;;10.30;55.00;;;;;;5082016;28;20243;-70
2022/01/16 07:37:22;;;;;;;;;;;10.30;55.00;;;;;;5082018;28;19912;-70
2022/01/16 07:39:48;;;;;;;;;;;10.30;55.10;;;;;;5081881;28;19920;-69
2022/01/16 07:42:14;;;;;;;;;;;10.20;55.10;;;;;;5081879;28;20120;-70
2022/01/16 07:44:39;;;;;;;;;;;10.20;55.20;;;;;;5081695;28;20099;-69
2022/01/16 07:47:05;;;;;;;;;;;10.20;55.20;;;;;;5081735;28;20108;-69
2022/01/16 07:49:31;;;;;;;;;;;10.20;55.20;;;;;;5081690;28;19920;-69
2022/01/16 07:51:56;;;;;;;;;;;10.20;55.20;;;;;;5081675;28;19920;-69
2022/01/16 07:54:22;;;;;;;;;;;10.30;55.10;;;;;;5081575;28;19912;-69
2022/01/16 07:56:47;;;;;;;;;;;10.30;55.00;;;;;;5081479;28;19913;-69
2022/01/16 07:59:13;;;;;;;;;;;10.40;55.00;;;;;;5081543;28;19912;-69
2022/01/16 08:01:39;;;;;;;;;;;10.40;54.80;;;;;;5081364;28;19913;-70
2022/01/16 08:04:04;;;;;;;;;;;10.40;54.80;;;;;;5081295;28;20101;-69
2022/01/16 08:06:30;;;;;;;;;;;10.50;55.10;;;;;;5081225;28;20031;-70
2022/01/16 08:08:56;;;;;;;;;;;10.60;54.60;;;;;;5081317;28;19920;-70
2022/01/16 08:11:22;;;;;;;;;;;10.70;54.20;;;;;;5081260;28;19905;-69
2022/01/16 08:13:47;;;;;;;;;;;10.70;54.20;;;;;;5081152;28;19912;-70
2022/01/16 08:16:14;;;;;;;;;;;10.70;54.20;;;;;;5081492;28;20282;-70
2022/01/16 08:18:40;;;;;;;;;;;10.70;54.20;;;;;;5081018;28;19904;-70
2022/01/16 08:21:06;;;;;;;;;;;10.80;54.00;;;;;;5081051;28;19916;-69
2022/01/16 08:23:31;;;;;;;;;;;10.80;54.10;;;;;;5080927;28;19904;-69
2022/01/16 08:25:57;;;;;;;;;;;10.80;54.20;;;;;;5080914;28;20473;-69
2022/01/16 08:28:22;;;;;;;;;;;10.90;54.10;;;;;;5080849;28;19934;-70
2022/01/16 08:30:48;;;;;;;;;;;10.90;54.20;;;;;;5079611;28;19958;-69
2022/01/16 08:33:14;;;;;;;;;;;10.90;54.20;;;;;;5079507;28;20208;-70
2022/01/16 08:35:39;;;;;;;;;;;10.90;54.10;;;;;;5080435;28;19912;-70
2022/01/16 08:38:05;;;;;;;;;;;11.00;54.00;;;;;;5080478;28;19912;-70
2022/01/16 08:40:30;;;;;;;;;;;11.00;53.80;;;;;;5080642;28;19919;-70
2022/01/16 08:42:56;;;;;;;;;;;11.00;53.90;;;;;;5080442;28;19905;-69
2022/01/16 08:45:22;;;;;;;;;;;11.00;53.70;;;;;;5080441;28;20050;-69
2022/01/16 08:47:47;;;;;;;;;;;11.00;53.80;;;;;;5080432;28;19919;-70
2022/01/16 08:50:14;;;;;;;;;;;11.00;53.70;;;;;;5080350;28;19916;-70
2022/01/16 08:52:40;;;;;;;;;;;11.00;53.70;;;;;;5080379;28;20013;-70
2022/01/16 08:55:07;;;;;;;;;;;11.10;53.60;;;;;;5080358;28;19916;-69
2022/01/16 08:57:32;;;;;;;;;;;11.10;53.60;;;;;;5080260;28;19935;-69
2022/01/16 08:59:58;;;;;;;;;;;11.10;53.60;;;;;;5080273;28;20201;-69
2022/01/16 09:02:24;;;;;;;;;;;11.00;53.80;;;;;;5080270;28;19994;-70
2022/01/16 09:04:49;;;;;;;;;;;11.00;53.90;;;;;;5080081;28;19915;-69
2022/01/16 09:07:15;;;;;;;;;;;10.90;54.00;;;;;;5079948;28;19920;-69
2022/01/16 09:09:41;;;;;;;;;;;10.90;54.10;;;;;;5080210;28;19997;-69
2022/01/16 09:12:07;;;;;;;;;;;10.90;54.20;;;;;;5080057;28;20248;-69
2022/01/16 09:14:33;;;;;;;;;;;10.90;54.20;;;;;;5079993;28;19913;-70
2022/01/16 09:16:58;;;;;;;;;;;10.90;54.20;;;;;;5078795;28;19913;-70
2022/01/16 09:19:24;;;;;;;;;;;10.90;54.20;;;;;;5080000;28;20208;-70
2022/01/16 09:21:50;;;;;;;;;;;11.00;54.10;;;;;;5079915;28;19911;-70
2022/01/16 09:24:15;;;;;;;;;;;11.10;54.10;;;;;;5079836;28;20104;-70
2022/01/16 09:26:41;;;;;;;;;;;11.10;53.90;;;;;;5079917;28;19904;-69
2022/01/16 09:29:07;;;;;;;;;;;11.10;53.70;;;;;;5079873;28;19924;-70
2022/01/16 09:31:32;;;;;;;;;;;11.20;53.70;;;;;;5079832;28;19951;-69
2022/01/16 09:33:59;;;;;;;;;;;11.20;53.70;;;;;;5079765;28;20233;-71
2022/01/16 09:36:25;;;;;;;;;;;11.20;53.60;;;;;;5079782;28;19971;-71
2022/01/16 09:38:51;;;;;;;;;;;11.20;53.60;;;;;;5079794;28;19912;-70
2022/01/16 09:41:17;;;;;;;;;;;11.30;53.70;;;;;;5078450;28;19975;-70
2022/01/16 09:43:42;;;;;;;;;;;11.20;53.60;;;;;;5079960;28;19913;-70
2022/01/16 09:46:08;;;;;;;;;;;11.10;53.90;;;;;;5079511;28;20201;-70
2022/01/16 09:48:34;;;;;;;;;;;11.00;54.00;;;;;;5081065;28;20113;-71
2022/01/16 09:51:00;;;;;;;;;;;11.00;54.10;;;;;;5083836;28;19904;-70
2022/01/16 09:53:26;;;;;;;;;;;11.00;54.30;;;;;;5083728;28;19940;-70
2022/01/16 09:55:52;;;;;;;;;;;11.00;54.30;;;;;;5083766;28;19904;-70
2022/01/16 09:58:19;;;;;;;;;;;11.00;54.40;;;;;;5083686;28;19918;-70
2022/01/16 10:00:45;;;;;;;;;;;11.00;54.40;;;;;;5083569;28;19916;-70
2022/01/16 10:03:31;;;;;;;;;;;11.00;54.40;;;;;;5083582;28;19913;-70
2022/01/16 10:06:06;;;;;;;;;;;11.00;54.30;;;;;;5083269;28;19917;-70
2022/01/16 10:08:32;;;;;;;;;;;11.00;54.30;;;;;;5083481;28;19939;-70
2022/01/16 10:10:58;;;;;;;;;;;11.10;54.40;;;;;;5083365;28;20105;-70
2022/01/16 10:13:32;;;;;;;;;;;11.20;54.10;;;;;;5082190;28;19913;-71
2022/01/16 10:15:58;;;;;;;;;;;11.20;53.90;;;;;;5083390;28;19920;-70
2022/01/16 10:18:36;;;;;;;;;;;11.30;54.10;;;;;;5083241;28;19913;-70
2022/01/16 10:21:01;;;;;;;;;;;11.30;54.00;;;;;;5083157;28;20132;-69
2022/01/16 10:23:27;;;;;;;;;;;11.30;53.90;;;;;;5083141;28;19912;-70
2022/01/16 10:25:53;;;;;;;;;;;11.20;53.90;;;;;;5083014;28;20022;-70
2022/01/16 10:28:20;;;;;;;;;;;11.30;54.00;;;;;;5082947;28;19984;-69
2022/01/16 10:30:50;;;;;;;;;;;11.20;54.20;;;;;;5081724;28;19920;-70
2022/01/16 10:33:17;;;;;;;;;;;11.10;54.30;;;;;;5082900;28;19939;-69
2022/01/16 10:35:43;;;;;;;;;;;11.10;54.50;;;;;;5082892;28;19912;-70
2022/01/16 10:38:10;;;;;;;;;;;11.10;54.50;;;;;;5082803;28;19918;-70
2022/01/16 10:40:37;;;;;;;;;;;11.10;54.40;;;;;;5082772;28;19912;-70
2022/01/16 10:43:06;;;;;;;;;;;11.20;54.50;;;;;;5082782;28;19931;-69
2022/01/16 10:45:32;;;;;;;;;;;11.20;54.40;;;;;;5082668;28;19915;-70
2022/01/16 10:47:59;;;;;;;;;;;11.20;54.30;;;;;;5082608;28;19912;-70
2022/01/16 10:50:25;;;;;;;;;;;11.20;54.30;;;;;;5082667;28;20146;-70
2022/01/16 10:52:57;;;;;;;;;;;11.20;54.20;;;;;;5082588;28;19980;-70
2022/01/16 10:55:32;;;;;;;;;;;11.20;54.30;;;;;;5082491;28;20315;-69
2022/01/16 10:58:04;;;;;;;;;;;11.20;54.50;;;;;;5082429;28;19913;-70
2022/01/16 11:00:30;;;;;;;;;;;11.20;54.60;;;;;;5082195;28;19908;-70
2022/01/16 11:03:00;;;;;;;;;;;11.20;54.60;;;;;;5082438;28;19950;-70
2022/01/16 11:05:29;;;;;;;;;;;11.20;54.50;;;;;;5080733;28;20204;-70
2022/01/16 11:08:03;;;;;;;;;;;11.20;54.50;;;;;;5082307;28;20109;-71
2022/01/16 11:10:29;;;;;;;;;;;11.20;54.50;;;;;;5082229;28;20136;-70
2022/01/16 11:13:14;;;;;;;;;;;11.20;54.50;;;;;;5082204;28;20219;-70
2022/01/16 11:15:41;;;;;;;;;;;11.20;54.60;;;;;;5082177;28;19911;-70
2022/01/16 11:18:08;;;;;;;;;;;11.20;54.60;;;;;;5082180;28;20415;-70
2022/01/16 11:20:36;;;;;;;;;;;11.30;54.50;;;;;;5082441;28;19962;-70
2022/01/16 11:23:13;;;;;;;;;;;11.30;54.60;;;;;;5082040;28;19904;-70
2022/01/16 11:25:40;;;;;;;;;;;11.30;54.40;;;;;;5081964;28;19916;-70
2022/01/16 11:28:16;;;;;;;;;;;11.30;54.40;;;;;;5081956;28;19912;-70
2022/01/16 11:30:43;;;;;;;;;;;11.30;54.40;;;;;;5080635;28;19904;-70
2022/01/16 11:33:09;;;;;;;;;;;11.30;54.40;;;;;;5081828;28;19975;-70
2022/01/16 11:35:50;;;;;;;;;;;11.30;54.60;;;;;;5081773;28;19911;-70
2022/01/16 11:38:18;;;;;;;;;;;11.30;54.60;;;;;;5081735;28;20208;-70
2022/01/16 11:40:46;;;;;;;;;;;11.20;54.60;;;;;;5081762;28;19928;-70
2022/01/16 11:43:17;;;;;;;;;;;11.30;54.70;;;;;;5081618;28;19905;-70
2022/01/16 11:45:46;;;;;;;;;;;11.30;54.60;;;;;;5081488;28;19997;-70
2022/01/16 11:48:11;;;;;;;;;;;11.30;54.70;;;;;;5081482;28;20193;-70
2022/01/16 11:50:37;;;;;;;;;;;11.30;54.50;;;;;;5081388;28;19919;-70
2022/01/16 11:53:03;;;;;;;;;;;11.30;54.60;;;;;;5081400;28;19991;-70
2022/01/16 11:55:33;;;;;;;;;;;11.30;54.50;;;;;;5081363;28;19912;-70
2022/01/16 11:58:00;;;;;;;;;;;11.30;54.60;;;;;;5081371;28;19940;-70
2022/01/16 12:00:40;;;;;;;;;;;11.30;54.60;;;;;;5079986;28;20200;-70
2022/01/16 12:03:26;;;;;;;;;;;11.30;54.80;;;;;;5080018;28;20143;-70
2022/01/16 12:05:55;;;;;;;;;;;11.30;54.80;;;;;;5080981;28;20227;-70
2022/01/16 12:08:32;;;;;;;;;;;11.30;54.90;;;;;;5081106;28;19913;-70
2022/01/16 12:10:58;;;;;;;;;;;11.30;54.90;;;;;;5080377;28;20234;-70
2022/01/16 12:13:42;;;;;;;;;;;11.30;54.90;;;;;;5081092;28;20201;-70
2022/01/16 12:16:26;;;;;;;;;;;11.30;54.80;;;;;;5081038;28;20200;-70
2022/01/16 12:18:52;;;;;;;;;;;11.30;54.80;;;;;;5080983;28;20213;-70
2022/01/16 12:21:30;;;;;;;;;;;11.30;54.90;;;;;;5080875;28;19920;-70
2022/01/16 12:23:56;;;;;;;;;;;11.30;54.90;;;;;;5080818;28;19919;-71
2022/01/16 12:26:32;;;;;;;;;;;11.30;54.70;;;;;;5080714;28;19908;-71
2022/01/16 12:28:58;;;;;;;;;;;11.30;54.80;;;;;;5080728;28;19940;-70
2022/01/16 12:31:32;;;;;;;;;;;11.30;54.80;;;;;;5080769;28;19927;-70
2022/01/16 12:33:59;;;;;;;;;;;11.30;54.70;;;;;;5080639;28;19954;-71
2022/01/16 12:36:32;;;;;;;;;;;11.30;54.80;;;;;;5080654;28;20239;-70
2022/01/16 12:39:01;;;;;;;;;;;11.30;54.80;;;;;;5080607;28;19912;-70
2022/01/16 12:41:28;;;;;;;;;;;11.30;54.90;;;;;;5080448;28;19911;-70
2022/01/16 12:43:55;;;;;;;;;;;11.30;54.90;;;;;;5080503;28;19999;-70
2022/01/16 12:46:21;;;;;;;;;;;11.30;55.00;;;;;;5079042;28;20162;-69
2022/01/16 12:48:50;;;;;;;;;;;11.30;55.00;;;;;;5080422;28;19904;-70
2022/01/16 12:51:16;;;;;;;;;;;11.30;54.80;;;;;;5080368;28;19927;-70
2022/01/16 12:53:43;;;;;;;;;;;11.40;54.70;;;;;;5080356;28;19908;-70
2022/01/16 12:56:19;;;;;;;;;;;11.40;54.70;;;;;;5080265;28;19912;-70
2022/01/16 12:58:45;;;;;;;;;;;11.30;54.70;;;;;;5080223;28;19911;-70
2022/01/16 13:01:11;;;;;;;;;;;11.30;54.70;;;;;;5078940;28;19983;-70
2022/01/16 13:03:37;;;;;;;;;;;11.30;54.60;;;;;;5080158;28;19905;-70
2022/01/16 13:06:18;;;;;;;;;;;11.40;54.70;;;;;;5079940;28;19924;-71
2022/01/16 13:08:52;;;;;;;;;;;11.30;54.70;;;;;;5080095;28;19919;-71
2022/01/16 13:11:18;;;;;;;;;;;11.30;54.80;;;;;;5080032;28;19987;-70
2022/01/16 13:13:43;;;;;;;;;;;11.30;54.80;;;;;;5080045;28;19935;-70
2022/01/16 13:16:28;;;;;;;;;;;11.30;54.80;;;;;;5079921;28;19905;-70
2022/01/16 13:19:14;;;;;;;;;;;11.30;54.90;;;;;;5079562;28;20216;-70
2022/01/16 13:21:43;;;;;;;;;;;11.30;54.90;;;;;;5079954;28;19916;-70
2022/01/16 13:24:22;;;;;;;;;;;11.40;54.90;;;;;;5079790;28;19912;-70
2022/01/16 13:26:47;;;;;;;;;;;11.40;54.80;;;;;;5079857;28;19917;-70
2022/01/16 13:29:15;;;;;;;;;;;11.40;54.80;;;;;;5079775;28;19919;-70
2022/01/16 13:31:41;;;;;;;;;;;11.40;54.70;;;;;;5079850;28;20158;-70
2022/01/16 13:34:06;;;;;;;;;;;11.40;54.60;;;;;;5079756;28;19904;-70
2022/01/16 13:36:32;;;;;;;;;;;11.50;54.60;;;;;;5079747;28;20107;-70
2022/01/16 13:38:58;;;;;;;;;;;11.50;54.60;;;;;;5079719;28;19936;-71
2022/01/16 13:41:23;;;;;;;;;;;11.50;54.40;;;;;;5079767;28;19920;-71
2022/01/16 13:43:49;;;;;;;;;;;11.50;54.70;;;;;;5079669;28;19920;-71
2022/01/16 13:46:14;;;;;;;;;;;11.40;54.70;;;;;;5079581;28;19939;-70
2022/01/16 13:48:41;;;;;;;;;;;11.40;54.60;;;;;;5079696;28;19940;-70
2022/01/16 13:51:07;;;;;;;;;;;11.50;54.60;;;;;;5079601;28;19911;-70
2022/01/16 13:53:32;;;;;;;;;;;11.50;54.70;;;;;;5079590;28;19912;-70
2022/01/16 13:56:24;;;;;;;;;;;11.50;54.70;;;;;;5079467;28;19923;-71
2022/01/16 13:58:54;;;;;;;;;;;11.50;54.70;;;;;;5080134;28;19908;-70
2022/01/16 14:01:24;;;;;;;;;;;11.50;54.70;;;;;;5079529;28;19905;-71
2022/01/16 14:03:51;;;;;;;;;;;11.50;54.70;;;;;;5079431;28;19912;-69
2022/01/16 14:06:17;;;;;;;;;;;11.50;54.70;;;;;;5079158;28;19916;-70
2022/01/16 14:08:50;;;;;;;;;;;11.50;54.60;;;;;;5079419;28;19920;-70
2022/01/16 14:11:18;;;;;;;;;;;11.60;54.40;;;;;;5079413;28;19935;-69
2022/01/16 14:13:50;;;;;;;;;;;11.60;54.40;;;;;;5079443;28;19919;-70
2022/01/16 14:16:18;;;;;;;;;;;11.60;54.40;;;;;;5079362;28;19923;-70
2022/01/16 14:19:06;;;;;;;;;;;11.60;54.40;;;;;;5079446;28;20220;-70
2022/01/16 14:24:27;;;;;;;;;;;11.50;54.70;;;;;;5079263;28;19915;-70
2022/01/16 14:26:54;;;;;;;;;;;11.50;54.70;;;;;;5079277;28;20511;-70
2022/01/16 14:29:21;;;;;;;;;;;11.50;54.80;;;;;;5079223;28;19939;-70
2022/01/16 14:31:48;;;;;;;;;;;11.50;54.70;;;;;;5079265;28;19905;-70
2022/01/16 14:34:14;;;;;;;;;;;11.60;54.90;;;;;;5079834;28;19913;-70
2022/01/16 14:36:40;;;;;;;;;;;11.50;54.70;;;;;;5082944;28;20101;-70
2022/01/16 14:39:07;;;;;;;;;;;11.50;54.70;;;;;;5082838;28;19919;-70
2022/01/16 14:41:35;;;;;;;;;;;11.50;54.80;;;;;;5082823;28;19942;-70
2022/01/16 14:44:02;;;;;;;;;;;11.60;54.70;;;;;;5082820;28;19919;-71
2022/01/16 14:46:29;;;;;;;;;;;11.60;54.70;;;;;;5082612;28;19951;-70
2022/01/16 14:48:55;;;;;;;;;;;11.60;54.80;;;;;;5082753;28;20241;-70
2022/01/16 14:51:21;;;;;;;;;;;11.60;54.70;;;;;;5082743;28;19920;-70
2022/01/16 14:53:47;;;;;;;;;;;11.50;54.80;;;;;;5082623;28;19904;-70
2022/01/16 14:56:13;;;;;;;;;;;11.50;55.00;;;;;;5082650;28;20097;-71
2022/01/16 14:58:40;;;;;;;;;;;11.50;55.10;;;;;;5082521;28;19946;-70
2022/01/16 15:01:06;;;;;;;;;;;11.50;55.10;;;;;;5082535;28;19919;-70
2022/01/16 15:03:32;;;;;;;;;;;11.50;55.10;;;;;;5082440;28;20300;-70
2022/01/16 15:05:57;;;;;;;;;;;11.50;55.20;;;;;;5082237;28;19931;-70
2022/01/16 15:08:23;;;;;;;;;;;11.50;55.10;;;;;;5082376;28;19927;-70